Time;durP1;ratioP1;P1;durP2;ratioP2;P2;SDS_P1;SDS_P2;PMS_P1;PMS_P2;Temp;Humidity;BMP_temperature;BMP_pressure;BME280_temperature;BME280_humidity;BME280_pressure;Samples;Min_cycle;Max_cycle;Signal;HPM_P1;HPM_P2
2023/09/30 00:00:13;;;;;;;;;;;19.70;71.10;;;;;;5052038;28;19924;-68
2023/09/30 00:02:38;;;;;;;;;;;19.70;71.10;;;;;;5050823;28;20099;-68
2023/09/30 00:05:04;;;;;;;;;;;19.70;71.00;;;;;;5050567;28;19966;-68
2023/09/30 00:07:29;;;;;;;;;;;19.70;71.00;;;;;;5050687;28;19947;-68
2023/09/30 00:09:55;;;;;;;;;;;19.70;71.00;;;;;;5051781;28;19921;-68
2023/09/30 00:12:20;;;;;;;;;;;19.60;70.90;;;;;;5051339;28;19929;-68
2023/09/30 00:14:48;;;;;;;;;;;19.70;71.00;;;;;;5050365;28;20331;-68
2023/09/30 00:17:14;;;;;;;;;;;19.70;71.00;;;;;;5050603;28;19928;-68
2023/09/30 00:19:40;;;;;;;;;;;19.60;70.90;;;;;;5051333;28;19928;-68
2023/09/30 00:22:05;;;;;;;;;;;19.60;70.90;;;;;;5053992;28;19921;-68
2023/09/30 00:24:34;;;;;;;;;;;19.60;70.90;;;;;;5054228;28;19921;-68
2023/09/30 00:27:00;;;;;;;;;;;19.60;70.90;;;;;;5054393;28;19925;-68
2023/09/30 00:29:26;;;;;;;;;;;19.60;70.90;;;;;;5055102;28;19929;-69
2023/09/30 00:31:52;;;;;;;;;;;19.60;70.90;;;;;;5055454;28;19921;-68
2023/09/30 00:34:17;;;;;;;;;;;19.60;70.90;;;;;;5053996;28;19928;-68
2023/09/30 00:36:43;;;;;;;;;;;19.60;70.90;;;;;;5055100;28;20384;-69
2023/09/30 00:39:09;;;;;;;;;;;19.60;70.90;;;;;;5054978;28;19976;-68
2023/09/30 00:41:35;;;;;;;;;;;19.60;70.90;;;;;;5053965;28;19920;-68
2023/09/30 00:44:01;;;;;;;;;;;19.60;70.90;;;;;;5053314;28;20272;-68
2023/09/30 00:46:28;;;;;;;;;;;19.60;70.90;;;;;;5053576;28;20269;-68
2023/09/30 00:48:55;;;;;;;;;;;19.50;70.80;;;;;;5053777;28;19924;-68
2023/09/30 00:51:21;;;;;;;;;;;19.50;70.80;;;;;;5053457;28;19956;-68
2023/09/30 00:53:46;;;;;;;;;;;19.50;70.80;;;;;;5053349;28;19925;-68
2023/09/30 00:56:12;;;;;;;;;;;19.50;70.70;;;;;;5053379;28;19928;-68
2023/09/30 00:58:38;;;;;;;;;;;19.50;70.70;;;;;;5054421;28;19921;-68
2023/09/30 01:01:04;;;;;;;;;;;19.50;70.70;;;;;;5054571;28;19925;-68
2023/09/30 01:03:29;;;;;;;;;;;19.50;70.70;;;;;;5053256;28;19921;-68
2023/09/30 01:05:55;;;;;;;;;;;19.50;70.60;;;;;;5053567;28;19920;-68
2023/09/30 01:08:21;;;;;;;;;;;19.50;70.60;;;;;;5053095;28;19928;-68
2023/09/30 01:10:46;;;;;;;;;;;19.50;70.60;;;;;;5054444;28;19928;-68
2023/09/30 01:13:12;;;;;;;;;;;19.50;70.60;;;;;;5054024;28;19939;-68
2023/09/30 01:15:38;;;;;;;;;;;19.50;70.70;;;;;;5052988;28;20435;-68
2023/09/30 01:18:04;;;;;;;;;;;19.50;70.60;;;;;;5054361;28;19921;-68
2023/09/30 01:20:29;;;;;;;;;;;19.50;70.60;;;;;;5053205;28;19924;-68
2023/09/30 01:22:56;;;;;;;;;;;19.50;70.60;;;;;;5053143;28;19928;-68
2023/09/30 01:25:22;;;;;;;;;;;19.50;70.60;;;;;;5053069;28;19924;-68
2023/09/30 01:27:48;;;;;;;;;;;19.50;70.60;;;;;;5052828;28;20280;-68
2023/09/30 01:30:13;;;;;;;;;;;19.50;70.50;;;;;;5052916;28;20036;-68
2023/09/30 01:32:39;;;;;;;;;;;19.50;70.60;;;;;;5052669;28;20369;-68
2023/09/30 01:35:05;;;;;;;;;;;19.50;70.50;;;;;;5054044;28;19920;-68
2023/09/30 01:37:30;;;;;;;;;;;19.50;70.50;;;;;;5052879;28;19920;-68
2023/09/30 01:39:56;;;;;;;;;;;19.40;70.50;;;;;;5053906;28;19928;-68
2023/09/30 01:42:21;;;;;;;;;;;19.40;70.50;;;;;;5052782;28;20298;-68
2023/09/30 01:44:47;;;;;;;;;;;19.40;70.40;;;;;;5053721;28;19924;-68
2023/09/30 01:47:13;;;;;;;;;;;19.40;70.50;;;;;;5053591;28;19921;-68
2023/09/30 01:49:38;;;;;;;;;;;19.40;70.50;;;;;;5053776;28;19924;-68
2023/09/30 01:52:04;;;;;;;;;;;19.40;71.20;;;;;;5052182;28;20023;-68
2023/09/30 01:54:29;;;;;;;;;;;19.40;70.40;;;;;;5052628;28;19936;-68
2023/09/30 01:56:55;;;;;;;;;;;19.40;70.40;;;;;;5053437;28;19927;-68
2023/09/30 01:59:21;;;;;;;;;;;19.40;70.50;;;;;;5052099;28;20273;-68
2023/09/30 02:01:47;;;;;;;;;;;19.40;70.50;;;;;;5052267;28;19978;-68
2023/09/30 02:04:15;;;;;;;;;;;19.40;70.40;;;;;;5053519;28;19966;-68
2023/09/30 02:06:41;;;;;;;;;;;19.40;70.40;;;;;;5052189;28;19921;-68
2023/09/30 02:09:08;;;;;;;;;;;19.40;70.40;;;;;;5052025;28;19927;-68
2023/09/30 02:11:34;;;;;;;;;;;19.40;70.40;;;;;;5051570;28;20007;-68
2023/09/30 02:14:01;;;;;;;;;;;19.30;70.30;;;;;;5053107;28;19925;-68
2023/09/30 02:16:27;;;;;;;;;;;19.40;70.30;;;;;;5051601;28;19921;-68
2023/09/30 02:18:53;;;;;;;;;;;19.30;70.30;;;;;;5051998;28;19927;-68
2023/09/30 02:21:18;;;;;;;;;;;19.30;70.30;;;;;;5051972;28;19927;-68
2023/09/30 02:23:47;;;;;;;;;;;19.30;70.20;;;;;;5052951;28;19967;-68
2023/09/30 02:26:14;;;;;;;;;;;19.30;70.30;;;;;;5051846;28;19970;-68
2023/09/30 02:28:42;;;;;;;;;;;19.30;70.20;;;;;;5052882;28;19932;-68
2023/09/30 02:31:08;;;;;;;;;;;19.30;70.20;;;;;;5052700;28;19920;-68
2023/09/30 02:33:37;;;;;;;;;;;19.30;70.20;;;;;;5051517;28;19925;-68
2023/09/30 02:36:05;;;;;;;;;;;19.30;70.20;;;;;;5051751;28;19928;-68
2023/09/30 02:38:31;;;;;;;;;;;19.30;70.20;;;;;;5051384;28;19952;-68
2023/09/30 02:40:57;;;;;;;;;;;19.30;70.20;;;;;;5085242;28;19968;-68
2023/09/30 02:43:22;;;;;;;;;;;19.30;70.20;;;;;;5051461;28;19994;-68
2023/09/30 02:45:48;;;;;;;;;;;19.30;70.20;;;;;;5084605;28;20028;-68
2023/09/30 02:48:13;;;;;;;;;;;19.30;70.20;;;;;;5052467;28;19935;-68
2023/09/30 02:50:41;;;;;;;;;;;19.30;70.20;;;;;;5051621;28;19932;-68
2023/09/30 02:53:07;;;;;;;;;;;19.30;70.20;;;;;;5052756;28;20024;-68
2023/09/30 02:55:32;;;;;;;;;;;19.20;70.10;;;;;;5051543;28;20434;-68
2023/09/30 02:57:58;;;;;;;;;;;19.30;70.10;;;;;;5051063;28;20003;-68
2023/09/30 03:00:24;;;;;;;;;;;19.30;70.10;;;;;;5051374;28;20380;-68
2023/09/30 03:02:52;;;;;;;;;;;19.20;70.00;;;;;;5052273;28;19921;-68
2023/09/30 03:05:18;;;;;;;;;;;19.20;70.00;;;;;;5052400;28;19921;-68
2023/09/30 03:07:43;;;;;;;;;;;19.20;70.20;;;;;;5051211;28;20368;-68
2023/09/30 03:10:09;;;;;;;;;;;19.20;70.00;;;;;;5051427;28;19931;-68
2023/09/30 03:12:35;;;;;;;;;;;19.20;70.00;;;;;;5050594;28;20330;-68
2023/09/30 03:15:04;;;;;;;;;;;19.20;70.00;;;;;;5051237;28;20287;-68
2023/09/30 03:17:32;;;;;;;;;;;19.20;70.00;;;;;;5052269;28;19921;-68
2023/09/30 03:19:58;;;;;;;;;;;19.10;69.90;;;;;;5051205;28;20277;-68
2023/09/30 03:22:25;;;;;;;;;;;19.20;70.00;;;;;;5051218;28;19928;-68
2023/09/30 03:24:51;;;;;;;;;;;19.20;70.00;;;;;;5052131;28;19921;-68
2023/09/30 03:27:16;;;;;;;;;;;19.20;70.00;;;;;;5051183;28;20430;-68
2023/09/30 03:29:42;;;;;;;;;;;19.20;70.00;;;;;;5050827;28;20009;-68
2023/09/30 03:32:07;;;;;;;;;;;19.20;69.90;;;;;;5051027;28;19932;-68
2023/09/30 03:34:36;;;;;;;;;;;19.20;69.90;;;;;;5052399;28;20395;-68
2023/09/30 03:37:02;;;;;;;;;;;19.20;69.90;;;;;;5051161;28;19921;-68
2023/09/30 03:39:27;;;;;;;;;;;19.10;69.90;;;;;;5050746;28;20311;-68
2023/09/30 03:41:55;;;;;;;;;;;19.10;69.90;;;;;;5051135;28;19921;-68
2023/09/30 03:44:22;;;;;;;;;;;19.20;70.00;;;;;;5050976;28;19921;-68
2023/09/30 03:46:49;;;;;;;;;;;19.20;69.90;;;;;;5050606;28;20399;-68
2023/09/30 03:49:15;;;;;;;;;;;19.20;69.90;;;;;;5051886;28;19967;-68
2023/09/30 03:51:41;;;;;;;;;;;19.20;69.90;;;;;;5050861;28;19921;-68
2023/09/30 03:54:08;;;;;;;;;;;19.10;69.80;;;;;;5052042;28;20454;-68
2023/09/30 03:56:34;;;;;;;;;;;19.10;69.80;;;;;;5054581;28;19920;-68
2023/09/30 03:58:59;;;;;;;;;;;19.10;69.80;;;;;;5054739;28;19947;-68
2023/09/30 04:01:26;;;;;;;;;;;19.10;69.80;;;;;;5054690;28;19971;-69
2023/09/30 04:03:55;;;;;;;;;;;19.10;69.80;;;;;;5038257;28;19921;-68
2023/09/30 04:06:20;;;;;;;;;;;19.10;69.80;;;;;;5055726;28;20288;-68
2023/09/30 04:08:46;;;;;;;;;;;19.10;69.80;;;;;;5054632;28;19928;-68
2023/09/30 04:11:17;;;;;;;;;;;19.10;69.80;;;;;;5054014;28;19956;-68
2023/09/30 04:13:43;;;;;;;;;;;19.10;69.80;;;;;;5055402;28;20277;-68
2023/09/30 04:16:09;;;;;;;;;;;19.10;69.80;;;;;;5055280;28;19925;-68
2023/09/30 04:18:34;;;;;;;;;;;19.10;69.80;;;;;;5054066;28;20434;-68
2023/09/30 04:21:00;;;;;;;;;;;19.10;69.80;;;;;;5054329;28;19921;-68
2023/09/30 04:23:25;;;;;;;;;;;19.00;69.70;;;;;;5054282;28;19964;-68
2023/09/30 04:25:51;;;;;;;;;;;19.10;69.80;;;;;;5055206;28;19927;-68
2023/09/30 04:28:20;;;;;;;;;;;19.00;69.70;;;;;;5055235;28;20058;-68
2023/09/30 04:30:49;;;;;;;;;;;19.00;69.70;;;;;;5053769;28;19928;-68
2023/09/30 04:33:17;;;;;;;;;;;19.00;69.70;;;;;;5055082;28;19978;-68
2023/09/30 04:35:43;;;;;;;;;;;19.00;69.60;;;;;;5087468;28;20323;-68
2023/09/30 04:38:08;;;;;;;;;;;19.10;69.70;;;;;;5053763;28;19927;-68
2023/09/30 04:40:34;;;;;;;;;;;19.00;69.60;;;;;;5054021;28;20298;-68
2023/09/30 04:42:59;;;;;;;;;;;19.00;69.60;;;;;;5054993;28;19921;-68
2023/09/30 04:45:26;;;;;;;;;;;19.00;69.60;;;;;;5053865;28;19920;-68
2023/09/30 04:47:52;;;;;;;;;;;19.00;69.60;;;;;;5054976;28;20326;-68
2023/09/30 04:50:18;;;;;;;;;;;19.00;69.60;;;;;;5053591;28;19967;-68
2023/09/30 04:52:45;;;;;;;;;;;19.00;69.60;;;;;;5053535;28;19970;-68
2023/09/30 04:55:12;;;;;;;;;;;19.00;69.60;;;;;;5053826;28;19920;-68
2023/09/30 04:57:38;;;;;;;;;;;19.00;69.60;;;;;;5053644;28;19920;-68
2023/09/30 05:00:10;;;;;;;;;;;19.00;69.60;;;;;;5055066;28;20310;-68
2023/09/30 05:02:36;;;;;;;;;;;19.00;69.60;;;;;;5053263;28;19967;-68
2023/09/30 05:05:02;;;;;;;;;;;19.00;69.60;;;;;;5054316;28;19967;-68
2023/09/30 05:07:28;;;;;;;;;;;19.00;69.60;;;;;;5054444;28;20445;-68
2023/09/30 05:09:54;;;;;;;;;;;18.90;69.60;;;;;;5054534;28;20408;-68
2023/09/30 05:12:20;;;;;;;;;;;18.90;69.50;;;;;;5054018;28;19982;-68
2023/09/30 05:14:45;;;;;;;;;;;19.00;69.60;;;;;;5053000;28;19920;-68
2023/09/30 05:17:11;;;;;;;;;;;18.90;69.50;;;;;;5053153;28;19968;-68
2023/09/30 05:19:37;;;;;;;;;;;18.90;69.50;;;;;;5054392;28;20352;-68
2023/09/30 05:22:03;;;;;;;;;;;19.00;69.60;;;;;;5052828;28;20177;-68
2023/09/30 05:24:29;;;;;;;;;;;18.90;69.50;;;;;;5053149;28;20386;-69
2023/09/30 05:26:54;;;;;;;;;;;18.90;69.50;;;;;;5053068;28;19920;-68
2023/09/30 05:29:20;;;;;;;;;;;18.90;69.50;;;;;;5054087;28;19921;-68
2023/09/30 05:31:46;;;;;;;;;;;18.90;69.50;;;;;;5052731;28;19948;-68
2023/09/30 05:34:11;;;;;;;;;;;18.90;69.50;;;;;;5054040;28;19960;-68
2023/09/30 05:36:37;;;;;;;;;;;18.90;69.50;;;;;;5053897;28;19921;-68
2023/09/30 05:39:03;;;;;;;;;;;18.90;69.50;;;;;;5052540;28;19920;-68
2023/09/30 05:41:29;;;;;;;;;;;18.90;69.50;;;;;;5052869;28;19921;-68
2023/09/30 05:43:55;;;;;;;;;;;18.90;69.40;;;;;;5052463;28;19921;-68
2023/09/30 05:46:21;;;;;;;;;;;18.90;69.40;;;;;;5053595;28;19943;-68
2023/09/30 05:48:46;;;;;;;;;;;18.90;69.50;;;;;;5053621;28;19944;-68
2023/09/30 05:51:15;;;;;;;;;;;18.90;69.50;;;;;;5053677;28;20402;-69
2023/09/30 05:53:41;;;;;;;;;;;19.00;69.50;;;;;;5052305;28;20308;-68
2023/09/30 05:56:07;;;;;;;;;;;18.90;69.40;;;;;;5053586;28;20124;-68
2023/09/30 05:58:33;;;;;;;;;;;18.90;70.20;;;;;;5052382;28;19921;-68
2023/09/30 06:01:00;;;;;;;;;;;18.90;69.40;;;;;;5052132;28;19931;-68
2023/09/30 06:03:29;;;;;;;;;;;18.90;69.40;;;;;;5052063;28;20023;-69
2023/09/30 06:05:55;;;;;;;;;;;18.90;69.40;;;;;;5052454;28;19959;-68
2023/09/30 06:08:21;;;;;;;;;;;18.90;69.40;;;;;;5053328;28;19946;-68
2023/09/30 06:10:47;;;;;;;;;;;18.80;69.30;;;;;;5051973;28;19974;-68
2023/09/30 06:13:13;;;;;;;;;;;18.90;69.40;;;;;;5051652;28;19932;-68
2023/09/30 06:15:40;;;;;;;;;;;18.80;69.30;;;;;;5052039;28;19927;-68
2023/09/30 06:18:06;;;;;;;;;;;18.90;69.30;;;;;;5052294;28;20433;-68
2023/09/30 06:20:31;;;;;;;;;;;18.80;69.30;;;;;;5052044;28;19921;-68
2023/09/30 06:22:57;;;;;;;;;;;18.80;69.30;;;;;;5051775;28;19975;-68
2023/09/30 06:25:24;;;;;;;;;;;18.90;69.30;;;;;;5053037;28;19967;-68
2023/09/30 06:27:50;;;;;;;;;;;18.80;69.30;;;;;;5052999;28;20299;-68
2023/09/30 06:30:16;;;;;;;;;;;18.80;69.30;;;;;;5051944;28;19920;-68
2023/09/30 06:32:41;;;;;;;;;;;18.80;69.20;;;;;;5051475;28;19924;-68
2023/09/30 06:35:10;;;;;;;;;;;18.80;69.30;;;;;;5051710;28;19927;-68
2023/09/30 06:37:37;;;;;;;;;;;18.80;69.20;;;;;;5052753;28;19925;-68
2023/09/30 06:40:03;;;;;;;;;;;18.80;69.30;;;;;;5085279;28;20021;-68
2023/09/30 06:42:29;;;;;;;;;;;18.80;69.30;;;;;;5051754;28;19925;-68
2023/09/30 06:44:54;;;;;;;;;;;18.80;69.30;;;;;;5051335;28;20454;-68
2023/09/30 06:47:20;;;;;;;;;;;18.80;69.30;;;;;;5051211;28;20035;-68
2023/09/30 06:49:46;;;;;;;;;;;18.80;69.20;;;;;;5051580;28;19974;-68
2023/09/30 06:52:13;;;;;;;;;;;18.70;69.20;;;;;;5051219;28;20372;-68
2023/09/30 06:54:38;;;;;;;;;;;18.80;69.30;;;;;;5051623;28;19960;-68
2023/09/30 06:57:04;;;;;;;;;;;18.80;69.30;;;;;;5051175;28;19960;-68
2023/09/30 06:59:31;;;;;;;;;;;18.80;69.20;;;;;;5051474;28;19963;-68
2023/09/30 07:01:57;;;;;;;;;;;18.80;69.20;;;;;;5051041;28;20381;-68
2023/09/30 07:04:22;;;;;;;;;;;18.80;69.20;;;;;;5051402;28;19928;-68
2023/09/30 07:06:48;;;;;;;;;;;18.80;69.20;;;;;;5052350;28;20015;-68
2023/09/30 07:09:13;;;;;;;;;;;18.80;69.20;;;;;;5052423;28;19921;-68
2023/09/30 07:11:39;;;;;;;;;;;18.80;69.20;;;;;;5051038;28;19929;-68
2023/09/30 07:14:04;;;;;;;;;;;18.80;69.20;;;;;;5050983;28;19924;-69
2023/09/30 07:16:30;;;;;;;;;;;18.80;69.20;;;;;;5050792;28;20431;-68
2023/09/30 07:18:55;;;;;;;;;;;18.80;69.20;;;;;;5051289;28;19924;-68
2023/09/30 07:21:21;;;;;;;;;;;18.80;69.20;;;;;;5051178;28;20378;-68
2023/09/30 07:23:47;;;;;;;;;;;18.80;69.20;;;;;;5050935;28;20415;-69
2023/09/30 07:26:14;;;;;;;;;;;18.80;69.20;;;;;;5052105;28;19927;-68
2023/09/30 07:28:40;;;;;;;;;;;18.80;69.20;;;;;;5052347;28;19928;-68
2023/09/30 07:31:05;;;;;;;;;;;18.80;69.90;;;;;;5054977;28;19921;-68
2023/09/30 07:33:31;;;;;;;;;;;18.80;69.20;;;;;;5056142;28;19925;-69
2023/09/30 07:35:56;;;;;;;;;;;18.80;69.20;;;;;;5055449;28;19920;-68
2023/09/30 07:38:22;;;;;;;;;;;18.80;69.20;;;;;;5054837;28;20468;-69
2023/09/30 07:40:48;;;;;;;;;;;18.80;69.20;;;;;;5055411;28;19959;-68
2023/09/30 07:43:14;;;;;;;;;;;18.80;69.20;;;;;;5054803;28;19920;-68
2023/09/30 07:45:40;;;;;;;;;;;18.80;69.20;;;;;;5055118;28;19928;-68
2023/09/30 07:48:09;;;;;;;;;;;18.80;69.20;;;;;;5054689;28;20019;-68
2023/09/30 07:50:35;;;;;;;;;;;18.80;69.20;;;;;;5056210;28;20384;-68
2023/09/30 07:53:00;;;;;;;;;;;18.70;69.10;;;;;;5055806;28;20024;-68
2023/09/30 07:55:26;;;;;;;;;;;18.80;69.20;;;;;;5054921;28;20105;-68
2023/09/30 07:57:51;;;;;;;;;;;18.80;69.10;;;;;;5055766;28;20050;-68
2023/09/30 08:00:17;;;;;;;;;;;18.80;69.10;;;;;;5055757;28;19982;-69
2023/09/30 08:02:43;;;;;;;;;;;18.80;69.40;;;;;;5054297;28;20390;-69
2023/09/30 08:05:09;;;;;;;;;;;18.70;69.10;;;;;;5054850;28;20331;-68
2023/09/30 08:07:35;;;;;;;;;;;18.70;69.10;;;;;;5055562;28;19927;-68
2023/09/30 08:10:01;;;;;;;;;;;18.70;69.10;;;;;;5055686;28;20284;-69
2023/09/30 08:12:26;;;;;;;;;;;18.80;69.20;;;;;;5054064;28;19925;-68
2023/09/30 08:14:52;;;;;;;;;;;18.80;69.20;;;;;;5055448;28;19921;-68
2023/09/30 08:17:17;;;;;;;;;;;18.70;69.10;;;;;;5054433;28;19927;-69
2023/09/30 08:19:43;;;;;;;;;;;18.80;69.20;;;;;;5055230;28;20406;-68
2023/09/30 08:22:09;;;;;;;;;;;18.80;69.20;;;;;;5054422;28;20361;-69
2023/09/30 08:24:35;;;;;;;;;;;18.70;69.10;;;;;;5055385;28;20019;-68
2023/09/30 08:27:01;;;;;;;;;;;18.80;69.20;;;;;;5054303;28;19920;-68
2023/09/30 08:29:26;;;;;;;;;;;18.70;69.10;;;;;;5055175;28;20015;-69
2023/09/30 08:31:52;;;;;;;;;;;18.70;69.10;;;;;;5053925;28;20396;-68
2023/09/30 08:34:19;;;;;;;;;;;18.70;69.10;;;;;;5053742;28;19924;-68
2023/09/30 08:36:45;;;;;;;;;;;18.70;69.10;;;;;;5053777;28;19920;-69
2023/09/30 08:39:10;;;;;;;;;;;18.70;69.10;;;;;;5055139;28;19955;-68
2023/09/30 08:41:36;;;;;;;;;;;18.70;69.10;;;;;;5054420;28;19927;-69
2023/09/30 08:44:03;;;;;;;;;;;18.70;69.20;;;;;;5053913;28;20280;-68
2023/09/30 08:46:30;;;;;;;;;;;18.70;69.10;;;;;;5053978;28;19981;-68
2023/09/30 08:48:57;;;;;;;;;;;18.70;69.20;;;;;;5053430;28;20014;-69
2023/09/30 08:51:23;;;;;;;;;;;18.80;69.20;;;;;;5053843;28;19927;-70
2023/09/30 08:53:49;;;;;;;;;;;18.80;69.20;;;;;;5054809;28;19928;-68
2023/09/30 08:56:15;;;;;;;;;;;18.70;69.20;;;;;;5053723;28;19944;-68
2023/09/30 08:58:41;;;;;;;;;;;18.70;69.20;;;;;;5053706;28;20400;-68
2023/09/30 09:01:09;;;;;;;;;;;18.70;69.20;;;;;;5053262;28;19921;-68
2023/09/30 09:03:36;;;;;;;;;;;18.80;69.30;;;;;;5054634;28;19921;-68
2023/09/30 09:06:02;;;;;;;;;;;18.70;69.20;;;;;;5053545;28;19925;-69
2023/09/30 09:08:27;;;;;;;;;;;18.80;69.30;;;;;;5053292;28;20421;-69
2023/09/30 09:10:54;;;;;;;;;;;18.70;69.20;;;;;;5053072;28;20277;-68
2023/09/30 09:13:20;;;;;;;;;;;18.80;69.20;;;;;;5052842;28;20442;-69
2023/09/30 09:15:45;;;;;;;;;;;18.70;69.20;;;;;;5054273;28;19921;-68
2023/09/30 09:18:14;;;;;;;;;;;18.70;69.20;;;;;;5053258;28;19921;-68
2023/09/30 09:20:39;;;;;;;;;;;18.70;69.20;;;;;;5053137;28;19931;-68
2023/09/30 09:23:06;;;;;;;;;;;18.80;69.30;;;;;;5053223;28;20308;-68
2023/09/30 09:25:37;;;;;;;;;;;18.70;69.20;;;;;;5053049;28;19921;-69
2023/09/30 09:28:03;;;;;;;;;;;18.70;69.20;;;;;;5053127;28;19928;-68
2023/09/30 09:30:29;;;;;;;;;;;18.80;69.20;;;;;;5052713;28;19924;-68
2023/09/30 09:35:35;;;;;;;;;;;18.80;69.30;;;;;;5130751;27;19911;-68
2023/09/30 09:38:02;;;;;;;;;;;18.80;69.20;;;;;;5129490;28;19923;-69
2023/09/30 09:40:28;;;;;;;;;;;18.80;69.20;;;;;;5129658;28;19926;-68
2023/09/30 09:42:55;;;;;;;;;;;18.80;69.20;;;;;;5129402;28;19920;-67
2023/09/30 09:45:22;;;;;;;;;;;18.80;69.30;;;;;;5129283;28;19924;-68
2023/09/30 09:47:48;;;;;;;;;;;18.80;69.20;;;;;;5129523;28;19919;-69
2023/09/30 09:50:14;;;;;;;;;;;18.80;69.30;;;;;;5130877;27;20367;-69
2023/09/30 09:52:41;;;;;;;;;;;18.80;69.30;;;;;;5130596;27;20017;-68
2023/09/30 09:55:08;;;;;;;;;;;18.80;69.30;;;;;;5129129;28;20029;-68
2023/09/30 09:57:33;;;;;;;;;;;18.80;69.20;;;;;;5130282;27;20426;-68
2023/09/30 09:59:59;;;;;;;;;;;18.80;69.30;;;;;;5129012;28;20011;-68
2023/09/30 10:02:25;;;;;;;;;;;18.80;69.20;;;;;;5128964;28;19984;-69
2023/09/30 10:04:51;;;;;;;;;;;18.80;69.20;;;;;;5128990;28;20536;-68
2023/09/30 10:07:21;;;;;;;;;;;18.80;69.20;;;;;;5129301;28;20116;-69
2023/09/30 10:09:48;;;;;;;;;;;18.80;69.20;;;;;;5130074;27;19977;-69
2023/09/30 10:12:14;;;;;;;;;;;18.80;69.20;;;;;;5129120;28;20359;-68
2023/09/30 10:14:40;;;;;;;;;;;18.80;69.20;;;;;;5128783;28;19949;-68
2023/09/30 10:17:06;;;;;;;;;;;18.80;69.20;;;;;;5128926;28;19933;-69
2023/09/30 10:19:32;;;;;;;;;;;18.90;69.10;;;;;;5128822;28;20275;-68
2023/09/30 10:22:18;;;;;;;;;;;18.90;69.70;;;;;;5128604;28;19919;-69
2023/09/30 10:24:44;;;;;;;;;;;18.90;68.80;;;;;;5163499;27;20014;-68
2023/09/30 10:30:10;;;;;;;;;;;18.90;68.60;;;;;;5110311;27;19913;-69
2023/09/30 10:38:31;;;;;;;;;;;19.00;68.40;;;;;;5110088;27;19913;-68
2023/09/30 10:40:57;;;;;;;;;;;19.00;68.40;;;;;;5108813;28;20007;-68
2023/09/30 10:43:31;;;;;;;;;;;19.00;68.30;;;;;;5108932;28;20000;-69
2023/09/30 10:45:57;;;;;;;;;;;19.00;68.30;;;;;;5109218;28;19923;-69
2023/09/30 10:51:14;;;;;;;;;;;19.00;68.20;;;;;;5110351;27;19919;-68
2023/09/30 10:53:41;;;;;;;;;;;19.00;68.20;;;;;;5108987;28;19927;-69
2023/09/30 10:56:06;;;;;;;;;;;19.10;68.20;;;;;;5109250;28;19920;-70
2023/09/30 10:58:40;;;;;;;;;;;19.10;68.20;;;;;;5108842;28;19927;-69
2023/09/30 11:01:05;;;;;;;;;;;19.10;68.20;;;;;;5108747;28;19920;-68
2023/09/30 11:03:30;;;;;;;;;;;19.10;68.20;;;;;;5108926;28;19972;-69
2023/09/30 11:05:56;;;;;;;;;;;19.10;68.20;;;;;;5108866;28;19927;-68
2023/09/30 11:08:23;;;;;;;;;;;19.10;68.20;;;;;;5109130;28;20014;-69
2023/09/30 11:10:50;;;;;;;;;;;19.00;68.20;;;;;;5109959;28;20318;-70
2023/09/30 11:13:16;;;;;;;;;;;19.10;68.20;;;;;;5108552;28;20389;-68
2023/09/30 11:15:43;;;;;;;;;;;19.10;68.20;;;;;;5108875;28;19920;-69
2023/09/30 11:18:17;;;;;;;;;;;19.00;68.20;;;;;;5109678;28;20290;-70
2023/09/30 11:20:42;;;;;;;;;;;19.10;68.20;;;;;;5109961;28;19973;-70
2023/09/30 11:23:08;;;;;;;;;;;19.10;68.20;;;;;;5108446;28;19924;-69
2023/09/30 11:25:37;;;;;;;;;;;19.10;68.20;;;;;;5109747;28;20325;-69
2023/09/30 11:28:18;;;;;;;;;;;19.10;68.20;;;;;;5108452;28;20375;-69
2023/09/30 11:31:00;;;;;;;;;;;19.10;68.20;;;;;;5108188;28;19924;-69
2023/09/30 11:33:26;;;;;;;;;;;19.10;68.20;;;;;;5109576;28;19966;-69
2023/09/30 11:36:06;;;;;;;;;;;19.00;68.20;;;;;;5108085;28;19928;-69
2023/09/30 11:38:32;;;;;;;;;;;19.10;68.20;;;;;;5108297;28;19965;-69
2023/09/30 11:43:57;;;;;;;;;;;19.00;68.10;;;;;;5110828;27;19912;-70
2023/09/30 11:46:27;;;;;;;;;;;19.10;68.20;;;;;;5109109;28;19970;-70
2023/09/30 11:49:00;;;;;;;;;;;19.10;68.20;;;;;;5109222;28;19920;-69
2023/09/30 11:51:26;;;;;;;;;;;19.10;68.20;;;;;;5108862;28;19931;-69
2023/09/30 11:53:54;;;;;;;;;;;19.10;68.20;;;;;;5110115;28;19924;-70
2023/09/30 11:56:20;;;;;;;;;;;19.10;68.20;;;;;;5110131;28;19946;-69
2023/09/30 11:58:46;;;;;;;;;;;19.10;68.20;;;;;;5108788;28;20375;-70
2023/09/30 12:01:13;;;;;;;;;;;19.10;68.20;;;;;;5110048;28;20306;-70
2023/09/30 12:03:39;;;;;;;;;;;19.10;68.20;;;;;;5109043;28;19973;-69
2023/09/30 12:06:06;;;;;;;;;;;19.10;68.20;;;;;;5108583;28;20413;-68
2023/09/30 12:08:32;;;;;;;;;;;19.10;68.20;;;;;;5108851;28;19924;-69
2023/09/30 12:10:59;;;;;;;;;;;19.10;68.20;;;;;;5109704;28;19927;-69
2023/09/30 12:13:25;;;;;;;;;;;19.10;68.20;;;;;;5108802;28;19919;-70
2023/09/30 12:15:52;;;;;;;;;;;19.10;68.20;;;;;;5109771;28;19945;-70
2023/09/30 12:18:23;;;;;;;;;;;19.10;68.20;;;;;;5109510;28;19928;-70
2023/09/30 12:20:52;;;;;;;;;;;19.10;68.20;;;;;;5108254;28;20012;-69
2023/09/30 12:23:17;;;;;;;;;;;19.10;68.20;;;;;;5108170;28;19950;-70
2023/09/30 12:25:43;;;;;;;;;;;19.00;68.10;;;;;;5108456;28;20018;-70
2023/09/30 12:28:09;;;;;;;;;;;19.10;68.10;;;;;;5108322;28;20011;-70
2023/09/30 12:30:34;;;;;;;;;;;19.10;68.20;;;;;;5108573;28;19927;-70
2023/09/30 12:33:00;;;;;;;;;;;19.10;68.10;;;;;;5109400;28;19920;-69
2023/09/30 12:35:26;;;;;;;;;;;19.10;68.20;;;;;;5108348;28;19924;-69
2023/09/30 12:37:51;;;;;;;;;;;19.10;68.10;;;;;;5109217;28;19931;-69
2023/09/30 12:40:17;;;;;;;;;;;19.10;68.10;;;;;;5109259;28;19920;-70
2023/09/30 12:42:44;;;;;;;;;;;19.10;68.10;;;;;;5121773;28;19924;-69
2023/09/30 12:45:10;;;;;;;;;;;19.10;68.10;;;;;;5111194;28;20011;-69
2023/09/30 12:47:35;;;;;;;;;;;19.10;68.00;;;;;;5111292;28;20014;-69
2023/09/30 12:50:01;;;;;;;;;;;19.10;68.00;;;;;;5129573;28;19924;-69
2023/09/30 12:52:27;;;;;;;;;;;19.10;68.00;;;;;;5111343;28;19919;-69
2023/09/30 12:54:52;;;;;;;;;;;19.10;68.00;;;;;;5097974;28;19931;-69
2023/09/30 12:57:19;;;;;;;;;;;19.10;68.00;;;;;;5115824;28;19963;-69
2023/09/30 12:59:46;;;;;;;;;;;19.10;68.00;;;;;;5097325;28;19920;-69
2023/09/30 13:02:12;;;;;;;;;;;19.10;68.00;;;;;;5097482;28;20047;-70
2023/09/30 13:04:42;;;;;;;;;;;19.10;67.90;;;;;;5097462;28;19920;-70
2023/09/30 13:07:11;;;;;;;;;;;19.10;67.90;;;;;;5097523;28;20160;-70
2023/09/30 13:09:38;;;;;;;;;;;19.20;68.00;;;;;;5115499;28;19995;-70
2023/09/30 13:12:03;;;;;;;;;;;19.20;68.00;;;;;;5097065;28;19919;-69
2023/09/30 13:14:29;;;;;;;;;;;19.10;68.00;;;;;;5097416;28;19920;-71
2023/09/30 13:16:54;;;;;;;;;;;19.10;67.90;;;;;;5115227;28;19919;-70
2023/09/30 13:19:21;;;;;;;;;;;19.20;68.00;;;;;;5115220;28;19920;-70
2023/09/30 13:21:49;;;;;;;;;;;19.10;67.90;;;;;;5096839;28;19930;-70
2023/09/30 13:24:15;;;;;;;;;;;19.20;68.00;;;;;;5097074;28;20371;-70
2023/09/30 13:26:40;;;;;;;;;;;19.20;68.00;;;;;;5115399;28;20421;-71
2023/09/30 13:29:09;;;;;;;;;;;19.20;68.00;;;;;;5097102;28;19923;-69
2023/09/30 13:31:37;;;;;;;;;;;19.20;68.00;;;;;;5115172;28;20322;-69
2023/09/30 13:34:03;;;;;;;;;;;19.20;68.00;;;;;;5114980;28;20328;-69
2023/09/30 13:36:28;;;;;;;;;;;19.20;68.00;;;;;;5097050;28;19945;-70
2023/09/30 13:38:54;;;;;;;;;;;19.20;68.00;;;;;;5096835;28;19949;-69
2023/09/30 13:41:19;;;;;;;;;;;19.20;68.00;;;;;;5096323;28;19972;-70
2023/09/30 13:43:45;;;;;;;;;;;19.10;67.90;;;;;;5096778;28;19974;-70
2023/09/30 13:46:12;;;;;;;;;;;19.10;67.90;;;;;;5096772;28;19926;-70
2023/09/30 13:48:37;;;;;;;;;;;19.10;67.90;;;;;;5096394;28;19923;-70
2023/09/30 13:51:04;;;;;;;;;;;19.20;68.00;;;;;;5096487;28;19968;-69
2023/09/30 13:53:30;;;;;;;;;;;19.20;68.00;;;;;;5096615;28;19920;-70
2023/09/30 13:55:55;;;;;;;;;;;19.20;68.00;;;;;;5096302;28;20492;-70
2023/09/30 13:58:20;;;;;;;;;;;19.10;67.90;;;;;;5096249;28;19923;-70
2023/09/30 14:00:47;;;;;;;;;;;19.20;68.00;;;;;;5114455;28;20057;-69
2023/09/30 14:03:13;;;;;;;;;;;19.20;68.00;;;;;;5096154;28;20420;-70
2023/09/30 14:05:39;;;;;;;;;;;19.20;68.00;;;;;;5095446;28;19924;-70
2023/09/30 14:08:07;;;;;;;;;;;19.20;68.00;;;;;;5096130;28;20336;-70
2023/09/30 14:10:33;;;;;;;;;;;19.20;68.00;;;;;;5095938;28;19930;-70
2023/09/30 14:12:58;;;;;;;;;;;19.20;68.00;;;;;;5096310;28;19920;-69
2023/09/30 14:15:27;;;;;;;;;;;19.10;67.90;;;;;;5096187;28;19969;-70
2023/09/30 14:17:55;;;;;;;;;;;19.20;68.00;;;;;;5095783;28;20431;-70
2023/09/30 14:20:21;;;;;;;;;;;19.20;68.00;;;;;;5114140;28;20341;-70
2023/09/30 14:22:47;;;;;;;;;;;19.10;67.90;;;;;;5129803;27;19959;-72
2023/09/30 14:25:12;;;;;;;;;;;19.20;67.90;;;;;;5095662;28;19930;-72
2023/09/30 14:27:40;;;;;;;;;;;19.20;68.00;;;;;;5130253;27;19920;-72